Terminal Aerodrome Forecast
Issued by NWS Kansas City/Pleasant Hill, MO

Home | Current Version | Previous Version | Text Only | Print | Product List | Glossary On
Versions: 1 2 3 4 5 6 7 8 9 10 11 12 13
539
FTUS43 KEAX 062328
TAFMCI
TAF
KMCI 062328Z 0700/0724 28004KT P6SM SKC
     FM070600 32004KT P6SM BKN090
     FM071500 32007KT 6SM -SN OVC035
     FM072100 32009KT P6SM SCT035=

USA.gov is the U.S. government's official web portal to all federal, state and local government web resources and services.